Sovereign — 9HUE9 — position and weather

sailwx.info

Track history (hours):
 
Tides and Currents Weather Stations Pressure Air Temp Water Temp Dewpoint Dewpoint Depression Visibility Wind Speed Wind Dir Waves Ship Positions

Sovereign

Last reported at 2018-Jan-09 20:20 UTC. Time now 2018-Jan-18 17:51 UTC.
Position S 24°04' W 046°16'.
Warning: this ship's position is 8 days out of date.

Length 269 m; draft 7.8 m.

Type: Passenger vessel. MMSI: 249539000.

Date/timePositionNaut miles runAvg speedWind from/ knotsBaromVisibWave heightAir tempDewpointWater temp
2018-Jan-09 20:20S 24°04' W 046°16'515.1
2018-Jan-09 20:00S 24°01' W 046°20'4 7.2
2018-Jan-09 19:29S 23°59' W 046°17'2 0.2
2018-Jan-09 09:10S 23°57' W 046°19'0 0.5
2018-Jan-09 09:00S 23°57' W 046°18'2 3.2
2018-Jan-09 08:30S 23°58' W 046°17'4 8.0
2018-Jan-09 08:00S 24°01' W 046°21'5 9.9
2018-Jan-09 07:30S 24°04' W 046°16'815.3
2018-Jan-09 07:01S 24°08' W 046°09'4 8.9
2018-Jan-09 06:30S 24°09' W 046°04'1 1.1
2018-Jan-09 06:00S 24°09' W 046°04'1 1.1
2018-Jan-09 05:30S 24°10' W 046°05'0 0.8
2018-Jan-09 05:00S 24°10' W 046°05'0 0.5
2018-Jan-09 04:31S 24°10' W 046°05'0 0.4
2018-Jan-09 04:00S 24°10' W 046°05'3 6.3
2018-Jan-09 03:30S 24°12' W 046°03'4 8.4
2018-Jan-09 03:00S 24°16' W 046°00'4 8.2
2018-Jan-09 02:30S 24°19' W 045°57'5 8.0
2018-Jan-09 01:53S 24°21' W 045°53'  
2018-Jan-05 20:06S 24°04' W 046°17'114.5
2018-Jan-05 20:00S 24°04' W 046°18'4 8.5
2018-Jan-05 19:30S 23°60' W 046°18'2 0.2
2018-Jan-05 08:51S 23°58' W 046°18'1 3.6
2018-Jan-05 08:30S 23°59' W 046°17'4 8.1
2018-Jan-05 08:00S 24°01' W 046°21'510.9
2018-Jan-05 07:30S 24°07' W 046°22'612.8
2018-Jan-05 07:00S 24°13' W 046°23'510.3
2018-Jan-05 06:30S 24°18' W 046°23'4 8.1
2018-Jan-05 06:00S 24°22' W 046°22'1 1.6
2018-Jan-05 05:30S 24°23' W 046°21'1 1.6
2018-Jan-05 05:00S 24°23' W 046°21'1 1.6
2018-Jan-05 04:30S 24°24' W 046°20'1 1.7
2018-Jan-05 04:00S 24°24' W 046°19'1 1.7
2018-Jan-05 03:30S 24°25' W 046°19'1 1.7
2018-Jan-05 03:00S 24°26' W 046°18'1 1.6
2018-Jan-05 02:30S 24°26' W 046°18'1 1.6
2018-Jan-05 02:00S 24°27' W 046°18'4 7.9
2018-Jan-05 01:30S 24°31' W 046°17'5 9.0
2018-Jan-05 01:00S 24°35' W 046°16'3 6.1
2018-Jan-05 00:30S 24°38' W 046°18'29 6.7
2018-Jan-04 20:13S 24°55' W 046°43'5 7.4
2018-Jan-04 19:34S 24°57' W 046°48'1 8.0
2018-Jan-04 19:29S 24°57' W 046°49'4 7.9
2018-Jan-04 19:00S 25°00' W 046°52'4 7.9
2018-Jan-04 18:30S 25°03' W 046°55'4 7.4
2018-Jan-04 18:00S 25°05' W 046°58'4 7.8
2018-Jan-04 17:29S 25°05' W 047°02'129 7.2
2018-Jan-03 23:33S 26°50' W 048°24'0 9.8
2018-Jan-03 23:30S 26°50' W 048°25'  
Track history (hours):
 
Tides and Currents Weather Stations Pressure Air Temp Water Temp Dewpoint Dewpoint Depression Visibility Wind Speed Wind Dir Waves Ship Positions

Sovereign

Last reported at 2018-Jan-09 20:20 UTC. Time now 2018-Jan-18 17:51 UTC.
Position S 24°04' W 046°16'.
Warning: this ship's position is 8 days out of date.

Length 269 m; draft 7.8 m.

Type: Passenger vessel. MMSI: 249539000.

Date/timePositionNaut miles runAvg speedWind from/ knotsBaromVisibWave heightAir tempDewpointWater temp
2018-Jan-09 20:20S 24°04' W 046°16'515.1
2018-Jan-09 20:00S 24°01' W 046°20'4 7.2
2018-Jan-09 19:29S 23°59' W 046°17'2 0.2
2018-Jan-09 09:10S 23°57' W 046°19'0 0.5
2018-Jan-09 09:00S 23°57' W 046°18'2 3.2
2018-Jan-09 08:30S 23°58' W 046°17'4 8.0
2018-Jan-09 08:00S 24°01' W 046°21'5 9.9
2018-Jan-09 07:30S 24°04' W 046°16'815.3
2018-Jan-09 07:01S 24°08' W 046°09'4 8.9
2018-Jan-09 06:30S 24°09' W 046°04'1 1.1
2018-Jan-09 06:00S 24°09' W 046°04'1 1.1
2018-Jan-09 05:30S 24°10' W 046°05'0 0.8
2018-Jan-09 05:00S 24°10' W 046°05'0 0.5
2018-Jan-09 04:31S 24°10' W 046°05'0 0.4
2018-Jan-09 04:00S 24°10' W 046°05'3 6.3
2018-Jan-09 03:30S 24°12' W 046°03'4 8.4
2018-Jan-09 03:00S 24°16' W 046°00'4 8.2
2018-Jan-09 02:30S 24°19' W 045°57'5 8.0
2018-Jan-09 01:53S 24°21' W 045°53'  
2018-Jan-05 20:06S 24°04' W 046°17'114.5
2018-Jan-05 20:00S 24°04' W 046°18'4 8.5
2018-Jan-05 19:30S 23°60' W 046°18'2 0.2
2018-Jan-05 08:51S 23°58' W 046°18'1 3.6
2018-Jan-05 08:30S 23°59' W 046°17'4 8.1
2018-Jan-05 08:00S 24°01' W 046°21'510.9
2018-Jan-05 07:30S 24°07' W 046°22'612.8
2018-Jan-05 07:00S 24°13' W 046°23'510.3
2018-Jan-05 06:30S 24°18' W 046°23'4 8.1
2018-Jan-05 06:00S 24°22' W 046°22'1 1.6
2018-Jan-05 05:30S 24°23' W 046°21'1 1.6
2018-Jan-05 05:00S 24°23' W 046°21'1 1.6
2018-Jan-05 04:30S 24°24' W 046°20'1 1.7
2018-Jan-05 04:00S 24°24' W 046°19'1 1.7
2018-Jan-05 03:30S 24°25' W 046°19'1 1.7
2018-Jan-05 03:00S 24°26' W 046°18'1 1.6
2018-Jan-05 02:30S 24°26' W 046°18'1 1.6
2018-Jan-05 02:00S 24°27' W 046°18'4 7.9
2018-Jan-05 01:30S 24°31' W 046°17'5 9.0
2018-Jan-05 01:00S 24°35' W 046°16'3 6.1
2018-Jan-05 00:30S 24°38' W 046°18'29 6.7
2018-Jan-04 20:13S 24°55' W 046°43'5 7.4
2018-Jan-04 19:34S 24°57' W 046°48'1 8.0
2018-Jan-04 19:29S 24°57' W 046°49'4 7.9
2018-Jan-04 19:00S 25°00' W 046°52'4 7.9
2018-Jan-04 18:30S 25°03' W 046°55'4 7.4
2018-Jan-04 18:00S 25°05' W 046°58'4 7.8
2018-Jan-04 17:29S 25°05' W 047°02'129 7.2
2018-Jan-03 23:33S 26°50' W 048°24'0 9.8
2018-Jan-03 23:30S 26°50' W 048°25'  

Dump ship's entire track history